createdAt,value
2022-08-25T00:02:01.971Z,12.38
2022-08-25T00:04:30.505Z,13.55
2022-08-25T00:07:02.650Z,13.33
2022-08-25T00:09:32.075Z,16.42
2022-08-25T00:11:59.853Z,17.73
2022-08-25T00:14:30.940Z,16.20
2022-08-25T00:17:00.584Z,18.63
2022-08-25T00:19:33.002Z,16.77
2022-08-25T00:22:01.411Z,15.43
2022-08-25T00:24:31.419Z,16.23
2022-08-25T00:27:01.736Z,14.88
2022-08-25T00:29:30.412Z,12.85
2022-08-25T00:31:57.973Z,12.18
2022-08-25T00:34:33.950Z,13.15
2022-08-25T00:37:01.178Z,14.45
2022-08-25T00:39:30.475Z,29.57
2022-08-25T00:41:58.184Z,13.73
2022-08-25T00:44:27.102Z,12.48
2022-08-25T00:46:57.440Z,11.43
2022-08-25T00:49:39.045Z,10.20
2022-08-25T00:52:20.614Z,10.90
2022-08-25T00:54:52.637Z,10.35
2022-08-25T00:57:34.425Z,11.80
2022-08-25T01:00:19.307Z,13.40
2022-08-25T01:02:46.450Z,12.70
2022-08-25T01:05:15.620Z,11.05
2022-08-25T01:07:44.623Z,11.30
2022-08-25T01:10:13.470Z,15.85
2022-08-25T01:12:40.885Z,12.32
2022-08-25T01:15:09.858Z,10.40
2022-08-25T01:17:50.018Z,11.35
2022-08-25T01:20:20.884Z,9.75
2022-08-25T01:22:50.915Z,11.18
2022-08-25T01:25:37.219Z,11.18
2022-08-25T01:28:05.485Z,8.40
2022-08-25T01:30:33.067Z,10.57
2022-08-25T01:33:02.895Z,9.27
2022-08-25T01:35:30.042Z,10.82
2022-08-25T01:37:56.897Z,11.02
2022-08-25T01:40:23.774Z,8.18
2022-08-25T01:43:09.725Z,9.40
2022-08-25T01:45:38.195Z,8.95
2022-08-25T01:48:06.675Z,13.18
2022-08-25T01:50:34.436Z,10.75
2022-08-25T01:53:11.834Z,46.83
2022-08-25T01:55:55.854Z,20.30
2022-08-25T01:58:31.863Z,14.85
2022-08-25T02:01:01.635Z,12.30
2022-08-25T02:03:30.244Z,9.75
2022-08-25T02:06:01.497Z,7.03
2022-08-25T02:08:31.902Z,7.63
2022-08-25T02:10:59.521Z,4.97
2022-08-25T02:13:31.144Z,5.25
2022-08-25T02:16:00.682Z,4.60
2022-08-25T02:18:27.975Z,4.00
2022-08-25T02:20:54.797Z,5.23
2022-08-25T02:23:24.613Z,5.30
2022-08-25T02:25:51.430Z,5.70
2022-08-25T02:28:18.306Z,5.93
2022-08-25T02:30:45.838Z,7.82
2022-08-25T02:33:12.778Z,7.88
2022-08-25T02:35:39.860Z,8.05
2022-08-25T02:38:07.242Z,7.07
2022-08-25T02:40:34.405Z,8.55
2022-08-25T02:43:06.688Z,6.55
2022-08-25T02:45:33.731Z,6.60
2022-08-25T02:48:00.678Z,10.07
2022-08-25T02:50:27.515Z,7.55
2022-08-25T02:52:55.035Z,7.38
2022-08-25T02:55:21.981Z,8.43
2022-08-25T02:57:49.254Z,6.88
2022-08-25T03:00:18.556Z,8.27
2022-08-25T03:02:46.713Z,6.80
2022-08-25T03:05:15.310Z,8.35
2022-08-25T03:07:42.943Z,6.97
2022-08-25T03:10:15.023Z,7.78
2022-08-25T03:12:42.359Z,7.75
2022-08-25T03:15:13.290Z,6.63
2022-08-25T03:17:40.390Z,7.82
2022-08-25T03:20:08.691Z,7.88
2022-08-25T03:22:36.402Z,8.25
2022-08-25T03:25:24.327Z,8.07
2022-08-25T03:27:51.981Z,8.30
2022-08-25T03:30:19.561Z,40.03
2022-08-25T03:32:47.421Z,10.48
2022-08-25T03:35:14.954Z,6.57
2022-08-25T03:37:42.116Z,6.60
2022-08-25T03:40:15.369Z,9.15
2022-08-25T03:42:47.010Z,11.32
2022-08-25T03:45:16.510Z,8.10
2022-08-25T03:47:47.028Z,7.97
2022-08-25T03:50:15.096Z,7.60
2022-08-25T03:52:42.838Z,6.55
2022-08-25T03:55:12.351Z,6.95
2022-08-25T03:57:39.607Z,6.97
2022-08-25T04:00:09.134Z,8.13
2022-08-25T04:02:40.213Z,7.15
2022-08-25T04:07:37.494Z,7.40
2022-08-25T04:10:10.113Z,9.00
2022-08-25T04:12:37.689Z,10.10
2022-08-25T04:15:06.103Z,9.55
2022-08-25T04:17:32.915Z,39.15
2022-08-25T04:20:02.869Z,9.10
2022-08-25T04:22:31.052Z,30.50
2022-08-25T04:25:01.752Z,9.68
2022-08-25T04:27:28.671Z,10.10
2022-08-25T04:29:55.470Z,9.05
2022-08-25T04:32:25.928Z,11.98
2022-08-25T04:34:52.841Z,17.00
2022-08-25T04:37:20.092Z,13.20
2022-08-25T04:39:47.062Z,14.25
2022-08-25T04:42:14.148Z,14.73
2022-08-25T04:44:41.698Z,13.82
2022-08-25T04:47:08.650Z,16.90
2022-08-25T04:49:38.995Z,14.27
2022-08-25T04:52:05.980Z,15.88
2022-08-25T04:54:42.386Z,11.88
2022-08-25T04:57:09.499Z,16.05
2022-08-25T04:59:36.863Z,13.82
2022-08-25T05:02:05.784Z,13.97
2022-08-25T05:04:35.225Z,13.45
2022-08-25T05:07:03.862Z,10.55
2022-08-25T05:09:32.605Z,15.23
2022-08-25T05:12:03.960Z,14.90
2022-08-25T05:14:32.264Z,20.08
2022-08-25T05:16:59.448Z,17.02
2022-08-25T05:19:26.748Z,19.17
2022-08-25T05:21:54.070Z,21.55
2022-08-25T05:24:22.738Z,18.17
2022-08-25T05:26:49.640Z,28.88
2022-08-25T05:29:16.603Z,33.08
2022-08-25T05:31:49.875Z,28.50
2022-08-25T05:34:19.117Z,41.40
2022-08-25T05:36:46.514Z,33.58
2022-08-25T05:39:16.233Z,32.80
2022-08-25T05:41:43.086Z,37.75
2022-08-25T05:44:10.019Z,34.10
2022-08-25T05:46:36.942Z,30.20
2022-08-25T05:49:04.079Z,24.73
2022-08-25T05:51:30.886Z,23.77
2022-08-25T05:53:57.967Z,25.95
2022-08-25T05:56:24.829Z,25.60
2022-08-25T05:58:51.740Z,23.85
2022-08-25T06:01:46.121Z,21.70
2022-08-25T06:04:14.229Z,21.50
2022-08-25T06:09:09.447Z,24.73
2022-08-25T06:11:39.641Z,23.58
2022-08-25T06:14:08.229Z,19.40
2022-08-25T06:16:35.131Z,20.25
2022-08-25T06:19:06.099Z,20.05
2022-08-25T06:21:33.024Z,17.23
2022-08-25T06:24:02.137Z,23.67
2022-08-25T06:26:28.974Z,17.33
2022-08-25T06:28:55.934Z,17.45
2022-08-25T06:31:22.872Z,18.27
2022-08-25T06:33:50.698Z,22.40
2022-08-25T06:36:19.112Z,16.67
2022-08-25T06:38:47.432Z,16.42
2022-08-25T06:41:14.589Z,15.38
2022-08-25T06:43:48.069Z,15.30
2022-08-25T06:46:19.598Z,16.35
2022-08-25T06:48:46.943Z,18.10
2022-08-25T06:51:17.077Z,14.67
2022-08-25T06:53:49.047Z,16.92
2022-08-25T06:56:17.509Z,14.25
2022-08-25T06:58:44.482Z,14.45
2022-08-25T07:01:20.346Z,16.23
2022-08-25T07:03:48.366Z,16.35
2022-08-25T07:06:18.545Z,16.63
2022-08-25T07:08:47.131Z,17.00
2022-08-25T07:11:16.693Z,16.08
2022-08-25T07:13:45.277Z,16.27
2022-08-25T07:16:12.324Z,20.63
2022-08-25T07:18:39.232Z,20.45
2022-08-25T07:21:08.837Z,22.63
2022-08-25T07:23:36.908Z,21.27
2022-08-25T07:29:10.636Z,24.17
2022-08-25T07:31:37.946Z,24.75
2022-08-25T07:34:25.605Z,27.10
2022-08-25T07:36:56.778Z,23.23
2022-08-25T07:39:24.907Z,26.00
2022-08-25T07:41:52.770Z,23.45
2022-08-25T07:44:22.211Z,23.50
2022-08-25T07:46:53.834Z,23.80
2022-08-25T07:49:23.470Z,22.83
2022-08-25T07:52:03.352Z,22.00
2022-08-25T07:54:34.386Z,19.08
2022-08-25T07:57:03.372Z,21.02
2022-08-25T07:59:31.005Z,18.10
2022-08-25T08:02:18.172Z,17.35
2022-08-25T08:04:50.289Z,16.58
2022-08-25T08:07:23.929Z,17.33
2022-08-25T08:10:42.395Z,18.83
2022-08-25T08:12:59.048Z,17.02
2022-08-25T08:15:29.728Z,17.90
2022-08-25T08:17:58.447Z,17.33
2022-08-25T08:20:26.728Z,16.13
2022-08-25T08:22:53.553Z,16.88
2022-08-25T08:25:21.538Z,17.27
2022-08-25T08:27:55.447Z,17.52
2022-08-25T08:30:25.859Z,16.33
2022-08-25T08:33:09.233Z,19.58
2022-08-25T08:35:37.650Z,22.45
2022-08-25T08:38:13.513Z,17.02
2022-08-25T08:41:11.533Z,18.30
2022-08-25T08:43:41.106Z,17.23
2022-08-25T08:46:11.904Z,17.52
2022-08-25T08:49:12.412Z,14.80
2022-08-25T08:51:53.298Z,19.92
2022-08-25T08:54:25.379Z,22.50
2022-08-25T08:57:19.544Z,18.80
2022-08-25T08:59:53.719Z,19.10
2022-08-25T09:02:39.507Z,18.27
2022-08-25T09:05:22.657Z,19.67
2022-08-25T09:08:04.691Z,20.45
2022-08-25T09:11:04.599Z,19.05
2022-08-25T09:14:04.416Z,20.83
2022-08-25T09:17:17.344Z,22.00
2022-08-25T09:19:53.259Z,21.65
2022-08-25T09:22:36.694Z,20.52
2022-08-25T09:25:52.665Z,18.42
2022-08-25T09:28:32.021Z,17.25
2022-08-25T09:30:59.130Z,19.23
2022-08-25T09:33:28.503Z,17.13
2022-08-25T09:35:57.546Z,16.58
2022-08-25T09:38:26.468Z,17.73
2022-08-25T09:40:57.961Z,15.05
2022-08-25T09:43:37.101Z,17.75
2022-08-25T09:46:10.947Z,14.98
2022-08-25T09:48:59.360Z,18.63
2022-08-25T09:51:42.366Z,20.02
2022-08-25T09:54:12.910Z,18.30
2022-08-25T09:56:52.272Z,17.25
2022-08-25T09:59:30.781Z,16.60
2022-08-25T10:02:25.772Z,13.98
2022-08-25T10:04:53.708Z,15.77
2022-08-25T10:07:39.208Z,14.30
2022-08-25T10:10:24.566Z,16.13
2022-08-25T10:12:51.733Z,15.95
2022-08-25T10:15:30.081Z,19.05
2022-08-25T10:18:29.769Z,17.88
2022-08-25T10:21:12.956Z,13.90
2022-08-25T10:23:54.631Z,19.77
2022-08-25T10:26:35.114Z,20.38
2022-08-25T10:29:26.036Z,17.02
2022-08-25T10:31:59.314Z,14.07
2022-08-25T10:34:44.403Z,20.88
2022-08-25T10:37:37.873Z,18.40
2022-08-25T10:40:46.702Z,18.05
2022-08-25T10:43:36.577Z,12.57
2022-08-25T10:46:36.721Z,15.43
2022-08-25T10:49:19.176Z,13.40
2022-08-25T10:52:15.247Z,17.05
2022-08-25T10:54:53.368Z,12.65
2022-08-25T10:57:55.448Z,14.60
2022-08-25T11:00:31.536Z,17.40
2022-08-25T11:03:17.929Z,17.13
2022-08-25T11:05:54.481Z,15.60
2022-08-25T11:08:57.019Z,11.25
2022-08-25T11:11:37.555Z,14.00
2022-08-25T11:14:14.179Z,11.98
2022-08-25T11:16:53.763Z,11.75
2022-08-25T11:19:34.968Z,12.75
2022-08-25T11:22:06.811Z,16.85
2022-08-25T11:24:55.752Z,13.50
2022-08-25T11:27:28.390Z,11.82
2022-08-25T11:30:09.842Z,16.35
2022-08-25T11:32:38.894Z,14.30
2022-08-25T11:35:16.589Z,14.25
2022-08-25T11:38:20.961Z,9.43
2022-08-25T11:41:20.350Z,10.35
2022-08-25T11:44:17.839Z,12.25
2022-08-25T11:47:41.528Z,11.23
2022-08-25T11:50:32.813Z,11.27
2022-08-25T11:53:11.481Z,10.52
2022-08-25T11:55:43.987Z,11.85
2022-08-25T11:58:31.613Z,14.15
2022-08-25T12:01:02.076Z,12.65
2022-08-25T12:03:34.811Z,16.30
2022-08-25T12:06:22.519Z,13.85
2022-08-25T12:09:03.370Z,14.40
2022-08-25T12:11:44.030Z,14.98
2022-08-25T12:14:22.490Z,11.63
2022-08-25T12:16:56.565Z,12.27
2022-08-25T12:19:34.833Z,11.10
2022-08-25T12:22:03.226Z,13.48
2022-08-25T12:24:48.040Z,14.98
2022-08-25T12:27:38.286Z,15.70
2022-08-25T12:30:18.384Z,14.38
2022-08-25T12:33:10.886Z,12.85
2022-08-25T12:36:00.378Z,14.35
2022-08-25T12:38:44.087Z,14.95
2022-08-25T12:41:19.438Z,13.85
2022-08-25T12:43:52.529Z,15.98
2022-08-25T12:46:26.327Z,15.02
2022-08-25T12:49:01.788Z,13.60
2022-08-25T12:51:54.517Z,13.98
2022-08-25T12:54:28.070Z,12.55
2022-08-25T12:57:01.735Z,11.15
2022-08-25T12:59:52.610Z,15.15
2022-08-25T13:02:51.926Z,14.73
2022-08-25T13:05:28.068Z,13.27
2022-08-25T13:08:33.645Z,14.73
2022-08-25T13:11:28.273Z,13.02
2022-08-25T13:14:28.434Z,12.77
2022-08-25T13:16:57.901Z,14.83
2022-08-25T13:19:26.128Z,12.88
2022-08-25T13:21:54.984Z,14.32
2022-08-25T13:24:26.501Z,12.50
2022-08-25T13:27:00.793Z,13.88
2022-08-25T13:29:35.156Z,14.25
2022-08-25T13:32:12.730Z,17.02
2022-08-25T13:34:42.640Z,15.38
2022-08-25T13:37:29.740Z,14.27
2022-08-25T13:42:54.365Z,12.85
2022-08-25T13:47:56.354Z,10.60
2022-08-25T13:50:27.582Z,14.25
2022-08-25T13:53:01.103Z,12.93
2022-08-25T13:55:51.182Z,12.80
2022-08-25T13:58:44.741Z,10.13
2022-08-25T14:01:44.039Z,15.40
2022-08-25T14:04:32.657Z,14.65
2022-08-25T14:07:34.012Z,9.27
2022-08-25T14:10:11.641Z,16.45
2022-08-25T14:12:46.706Z,13.57
2022-08-25T14:15:16.632Z,15.07
2022-08-25T14:18:02.849Z,15.07
2022-08-25T14:20:31.885Z,10.98
2022-08-25T14:23:02.464Z,11.55
2022-08-25T14:25:31.293Z,12.70
2022-08-25T14:28:14.892Z,21.23
2022-08-25T14:30:49.489Z,15.68
2022-08-25T14:33:23.529Z,16.38
2022-08-25T14:35:53.725Z,18.80
2022-08-25T14:38:22.201Z,13.30
2022-08-25T14:40:50.204Z,13.43
2022-08-25T14:45:48.645Z,10.02
2022-08-25T14:48:39.892Z,13.77
2022-08-25T14:51:07.380Z,9.02
2022-08-25T14:53:35.242Z,12.60
2022-08-25T14:56:08.480Z,10.80
2022-08-25T14:58:51.225Z,14.63
2022-08-25T15:01:28.386Z,11.02
2022-08-25T15:04:18.874Z,10.10
2022-08-25T15:06:49.709Z,15.00
2022-08-25T15:09:18.100Z,13.32
2022-08-25T15:11:50.826Z,22.20
2022-08-25T15:14:29.026Z,16.02
2022-08-25T15:17:01.798Z,9.98
2022-08-25T15:19:29.508Z,10.90
2022-08-25T15:21:57.729Z,14.98
2022-08-25T15:24:27.233Z,13.70
2022-08-25T15:26:58.064Z,12.20
2022-08-25T15:29:27.967Z,10.60
2022-08-25T15:32:00.261Z,11.20
2022-08-25T15:34:28.461Z,9.52
2022-08-25T15:36:58.389Z,12.85
2022-08-25T15:39:26.427Z,10.43
2022-08-25T15:41:53.516Z,13.30
2022-08-25T15:44:22.203Z,11.85
2022-08-25T15:46:51.065Z,15.40
2022-08-25T15:49:20.781Z,9.00
2022-08-25T15:51:52.654Z,13.77
2022-08-25T15:54:22.543Z,10.35
2022-08-25T15:56:49.619Z,10.25
2022-08-25T15:59:16.794Z,9.65
2022-08-25T16:01:48.169Z,12.98
2022-08-25T16:04:15.061Z,9.35
2022-08-25T18:47:48.668Z,17.77
2022-08-25T18:50:15.758Z,18.92
2022-08-25T18:52:42.594Z,20.15
2022-08-25T18:55:10.488Z,19.60
2022-08-25T18:57:42.691Z,19.17
2022-08-25T19:00:14.263Z,17.45
2022-08-25T19:02:46.896Z,19.80
2022-08-25T19:05:14.491Z,17.55
2022-08-25T19:07:41.980Z,20.08
2022-08-25T19:10:09.022Z,26.05
2022-08-25T19:12:36.809Z,19.80
2022-08-25T19:17:37.192Z,21.27
2022-08-25T19:20:11.329Z,20.75
2022-08-25T19:22:41.982Z,17.13
2022-08-25T19:25:10.824Z,24.58
2022-08-25T19:27:38.298Z,16.50
2022-08-25T19:30:08.984Z,20.33
2022-08-25T19:32:41.577Z,20.02
2022-08-25T19:35:12.405Z,23.63
2022-08-25T19:37:40.686Z,16.27
2022-08-25T19:40:11.012Z,17.58
2022-08-25T19:42:38.564Z,16.25
2022-08-25T19:45:10.350Z,15.60
2022-08-25T19:47:41.331Z,23.63
2022-08-25T19:50:09.156Z,25.83
2022-08-25T19:52:36.803Z,20.88
2022-08-25T19:55:03.968Z,27.30
2022-08-25T19:57:42.282Z,13.45
2022-08-25T20:00:18.226Z,16.90
2022-08-25T20:02:46.065Z,21.40
2022-08-25T20:05:15.562Z,20.05
2022-08-25T20:07:52.058Z,31.00
2022-08-25T20:10:19.663Z,20.80
2022-08-25T20:12:46.888Z,27.52
2022-08-25T20:15:16.583Z,20.67
2022-08-25T20:17:44.976Z,22.17
2022-08-25T20:20:14.979Z,17.17
2022-08-25T20:22:41.808Z,17.73
2022-08-25T20:25:13.461Z,16.75
2022-08-25T20:27:57.652Z,18.88
2022-08-25T20:30:28.843Z,26.70
2022-08-25T20:32:57.193Z,20.80
2022-08-25T20:35:26.830Z,21.23
2022-08-25T20:37:59.364Z,18.75
2022-08-25T20:40:29.451Z,20.33
2022-08-25T20:42:58.864Z,21.60
2022-08-25T20:45:26.044Z,21.08
2022-08-25T20:47:53.062Z,22.73
2022-08-25T20:50:20.580Z,15.70
2022-08-25T20:52:48.554Z,19.13
2022-08-25T20:57:45.918Z,23.55
2022-08-25T21:00:13.320Z,18.73
2022-08-25T21:02:40.358Z,20.13
2022-08-25T21:05:10.303Z,24.40
2022-08-25T21:07:37.235Z,21.77
2022-08-25T21:10:10.467Z,24.45
2022-08-25T21:12:40.877Z,26.75
2022-08-25T21:15:10.577Z,19.02
2022-08-25T21:17:37.802Z,21.15
2022-08-25T21:20:08.761Z,16.17
2022-08-25T21:22:37.695Z,24.33
2022-08-25T21:25:08.379Z,24.52
2022-08-25T21:27:35.365Z,22.38
2022-08-25T21:30:02.192Z,25.65
2022-08-25T21:32:28.957Z,23.80
2022-08-25T21:34:57.104Z,30.17
2022-08-25T21:37:28.241Z,26.63
2022-08-25T21:39:55.359Z,22.08
2022-08-25T21:42:23.901Z,17.65
2022-08-25T21:44:54.712Z,23.13
2022-08-25T21:47:23.241Z,22.92
2022-08-25T21:49:50.605Z,15.85
2022-08-25T21:52:18.242Z,23.23
2022-08-25T21:54:45.381Z,23.33
2022-08-25T21:57:17.849Z,21.63
2022-08-25T21:59:48.817Z,21.98
2022-08-25T22:02:20.511Z,16.02
2022-08-25T22:04:54.083Z,18.40
2022-08-25T22:07:24.532Z,16.85
2022-08-25T22:09:52.244Z,22.50
2022-08-25T22:12:19.603Z,15.95
2022-08-25T22:14:48.891Z,21.73
2022-08-25T22:17:21.104Z,18.85
2022-08-25T22:19:53.865Z,20.58
2022-08-25T22:22:21.706Z,27.52
2022-08-25T22:24:52.584Z,18.02
2022-08-25T22:27:24.607Z,19.02
2022-08-25T22:29:52.150Z,22.17
2022-08-25T22:34:47.844Z,17.77
2022-08-25T22:37:17.741Z,26.00
2022-08-25T22:39:45.688Z,24.63
2022-08-25T22:42:13.159Z,23.88
2022-08-25T22:44:42.468Z,22.42
2022-08-25T22:47:10.560Z,21.75
2022-08-25T22:49:39.361Z,19.30
2022-08-25T22:52:07.380Z,19.70
2022-08-25T22:54:36.600Z,24.77
2022-08-25T22:57:06.657Z,21.80
2022-08-25T22:59:34.348Z,16.50
2022-08-25T23:02:01.362Z,18.15
2022-08-25T23:04:30.993Z,21.05
2022-08-25T23:06:57.921Z,23.00
2022-08-25T23:09:25.025Z,23.40
2022-08-25T23:11:52.051Z,23.80
2022-08-25T23:14:19.227Z,21.27
2022-08-25T23:16:46.739Z,26.70
2022-08-25T23:19:17.138Z,24.33
2022-08-25T23:22:03.940Z,19.20
2022-08-25T23:24:32.118Z,22.42
2022-08-25T23:27:00.747Z,27.30
2022-08-25T23:29:28.114Z,21.15
2022-08-25T23:31:55.500Z,20.30
2022-08-25T23:34:23.175Z,21.63
2022-08-25T23:36:50.639Z,20.67
2022-08-25T23:39:21.918Z,24.80
2022-08-25T23:41:49.825Z,21.73
2022-08-25T23:44:18.559Z,23.85
2022-08-25T23:46:47.781Z,22.35
2022-08-25T23:49:18.554Z,22.35
2022-08-25T23:51:48.666Z,21.23
2022-08-25T23:54:17.057Z,20.95
2022-08-25T23:56:52.167Z,26.00
2022-08-25T23:59:24.510Z,22.25
